Moscow, Kansas
Current Conditions -  °F | °C
As of 2:55 AM on Saturday 25 Oct 2014 (Local Time) from KLBL Reporting Station
Clear Clear  
Wind Chill: 54°   Ceiling: Unl
Heat Index: 54°   Visibility: 10mi
Dew Point: 39°   Wind: 5mph
Humidity: 58%   Direction: 260°W
Pressure: 30.11"   Gusts: NA
Location:  37.32°N, 101.21°W
Report Text: KLBL 250755Z AUTO 26004KT 10SM CLR 12/04 A3011 RMK AO1
Loading
Personal Weather Stations






























Interactive Weather Map
Tropical Storm Tracking
New forecast layout! Learn more

10-Day Weather Forecast

Advertisements
Track Severe Weather on mobile